Time;durP1;ratioP1;P1;durP2;ratioP2;P2;SDS_P1;SDS_P2;PMS_P1;PMS_P2;Temp;Humidity;BMP_temperature;BMP_pressure;BME280_temperature;BME280_humidity;BME280_pressure;Samples;Min_cycle;Max_cycle;Signal;HPM_P1;HPM_P2
2022/08/28 00:02:10;;;;;;;3.27;1.20;;;16.00;99.90;;;;;;5002653;28;20306;-79
2022/08/28 00:04:36;;;;;;;1.70;1.30;;;16.00;99.90;;;;;;4991753;28;20858;-80
2022/08/28 00:07:02;;;;;;;7.07;1.37;;;16.00;99.90;;;;;;4982348;28;20236;-80
2022/08/28 00:09:28;;;;;;;1.67;0.97;;;16.00;99.90;;;;;;5010185;28;20688;-79
2022/08/28 00:11:55;;;;;;;4.80;1.47;;;16.00;99.90;;;;;;5012380;28;20257;-80
2022/08/28 00:14:22;;;;;;;2.57;1.00;;;16.10;99.90;;;;;;5012301;28;20697;-80
2022/08/28 00:16:48;;;;;;;3.43;0.90;;;16.10;99.90;;;;;;4995378;28;20277;-80
2022/08/28 00:19:18;;;;;;;2.13;1.43;;;16.10;99.90;;;;;;5013126;28;20230;-80
2022/08/28 00:21:45;;;;;;;3.57;1.27;;;16.00;99.90;;;;;;5013192;28;20226;-80
2022/08/28 00:24:11;;;;;;;6.53;1.07;;;16.00;99.90;;;;;;5010357;28;20216;-81
2022/08/28 00:29:22;;;;;;;1.93;0.80;;;16.00;99.90;;;;;;5011205;28;20215;-80
2022/08/28 00:31:47;;;;;;;1.63;1.20;;;16.00;99.90;;;;;;5003897;28;20235;-82
2022/08/28 00:34:13;;;;;;;1.47;0.90;;;16.10;99.90;;;;;;4996262;28;20655;-80
2022/08/28 00:36:40;;;;;;;3.43;0.70;;;16.10;99.90;;;;;;4995653;28;20222;-80
2022/08/28 00:39:07;;;;;;;2.77;1.07;;;16.10;99.90;;;;;;5007707;28;20238;-80
2022/08/28 00:41:34;;;;;;;1.70;1.13;;;16.10;99.90;;;;;;5012939;28;20225;-80
2022/08/28 00:44:14;;;;;;;4.87;1.10;;;16.00;99.90;;;;;;5000206;28;20311;-81
2022/08/28 00:46:42;;;;;;;4.70;1.13;;;16.00;99.90;;;;;;5012962;28;20183;-80
2022/08/28 00:49:09;;;;;;;2.17;1.47;;;15.90;99.90;;;;;;5013247;28;20187;-80
2022/08/28 00:54:22;;;;;;;4.47;0.90;;;15.80;99.90;;;;;;5006302;28;20233;-80
2022/08/28 00:56:48;;;;;;;3.70;1.23;;;15.80;99.90;;;;;;4999080;28;20581;-80
2022/08/28 00:59:18;;;;;;;1.33;0.67;;;15.80;99.90;;;;;;4991865;28;20219;-80
2022/08/28 01:01:45;;;;;;;2.63;0.93;;;15.80;99.90;;;;;;5011884;28;20179;-80
2022/08/28 01:04:15;;;;;;;1.57;1.03;;;15.80;99.90;;;;;;4992223;28;20188;-80
2022/08/28 01:06:47;;;;;;;2.23;1.63;;;15.80;99.90;;;;;;5012104;28;20243;-81
2022/08/28 01:09:14;;;;;;;2.93;0.90;;;15.70;99.90;;;;;;5012498;28;20692;-79
2022/08/28 01:11:43;;;;;;;2.80;1.03;;;15.70;99.90;;;;;;5016464;28;20218;-81
2022/08/28 01:14:11;;;;;;;2.60;0.63;;;15.70;99.90;;;;;;5003559;28;20224;-79
2022/08/28 01:16:38;;;;;;;1.60;1.03;;;15.70;99.90;;;;;;4977087;28;20276;-79
2022/08/28 01:19:08;;;;;;;8.23;2.83;;;15.70;99.90;;;;;;4984309;28;20242;-79
2022/08/28 01:21:57;;;;;;;5.20;1.00;;;15.70;99.90;;;;;;5004643;28;20215;-80
2022/08/28 01:24:23;;;;;;;4.20;1.00;;;15.80;99.90;;;;;;5009035;28;20238;-80
2022/08/28 01:26:49;;;;;;;3.77;1.30;;;15.70;99.90;;;;;;5011833;28;20676;-79
2022/08/28 01:29:15;;;;;;;4.50;1.00;;;15.70;99.90;;;;;;5012049;28;20238;-80
2022/08/28 01:31:41;;;;;;;1.70;0.73;;;15.80;99.90;;;;;;5007017;28;20290;-79
2022/08/28 01:34:09;;;;;;;1.83;0.47;;;15.70;99.90;;;;;;5012735;28;20206;-80
2022/08/28 01:36:35;;;;;;;6.17;0.83;;;15.70;99.90;;;;;;5014749;28;20293;-79
2022/08/28 01:39:13;;;;;;;5.77;1.23;;;15.70;99.90;;;;;;5011690;28;20211;-79
2022/08/28 01:41:45;;;;;;;1.13;1.03;;;15.70;99.90;;;;;;5012108;28;20215;-79
2022/08/28 01:44:13;;;;;;;4.57;1.27;;;15.70;99.90;;;;;;5006576;28;20226;-81
2022/08/28 01:46:42;;;;;;;4.33;0.70;;;15.80;99.90;;;;;;5011711;28;20355;-80
2022/08/28 01:49:10;;;;;;;2.37;0.77;;;15.70;99.90;;;;;;5010974;28;20218;-80
2022/08/28 01:51:38;;;;;;;2.03;1.13;;;15.70;99.90;;;;;;5010815;28;20242;-79
2022/08/28 01:54:04;;;;;;;5.07;0.97;;;15.70;99.90;;;;;;5007328;28;20700;-79
2022/08/28 01:56:31;;;;;;;0.60;0.60;;;15.70;99.90;;;;;;5010635;28;20278;-79
2022/08/28 01:58:57;;;;;;;3.93;0.77;;;15.60;99.90;;;;;;5010560;28;20288;-79
2022/08/28 02:01:23;;;;;;;1.17;1.00;;;15.60;99.90;;;;;;4974528;28;20645;-81
2022/08/28 02:03:51;;;;;;;2.50;0.90;;;15.60;99.90;;;;;;5011430;28;20219;-79
2022/08/28 02:06:17;;;;;;;2.80;0.80;;;15.60;99.90;;;;;;4999296;28;20236;-80
2022/08/28 02:08:43;;;;;;;1.33;0.60;;;15.60;99.90;;;;;;4999014;28;20247;-81
2022/08/28 02:11:11;;;;;;;2.70;0.87;;;15.50;99.90;;;;;;5009201;28;20226;-79
2022/08/28 02:13:38;;;;;;;3.47;1.53;;;15.60;99.90;;;;;;4987124;28;20183;-79
2022/08/28 02:16:06;;;;;;;0.53;0.53;;;15.70;99.90;;;;;;5002520;28;20249;-80
2022/08/28 02:18:32;;;;;;;1.00;0.90;;;15.80;99.90;;;;;;5010260;28;20799;-79
2022/08/28 02:20:58;;;;;;;1.03;0.77;;;15.90;99.90;;;;;;5011287;28;20314;-79
2022/08/28 02:23:24;;;;;;;0.83;0.37;;;15.90;99.90;;;;;;5010327;28;20223;-80
2022/08/28 02:25:49;;;;;;;2.00;0.73;;;15.90;99.90;;;;;;5011183;28;20285;-79
2022/08/28 02:28:15;;;;;;;0.63;0.60;;;16.00;99.90;;;;;;5011683;28;20222;-80
2022/08/28 02:30:41;;;;;;;1.13;0.93;;;16.00;99.90;;;;;;5011723;28;20277;-80
2022/08/28 02:33:06;;;;;;;0.97;0.60;;;16.00;99.90;;;;;;5011551;28;20251;-80
2022/08/28 02:35:32;;;;;;;2.20;0.60;;;16.00;99.90;;;;;;4993606;28;20246;-81
2022/08/28 02:37:59;;;;;;;2.20;0.90;;;15.90;99.90;;;;;;5010131;28;20285;-81
2022/08/28 02:40:25;;;;;;;0.80;0.77;;;15.90;99.90;;;;;;5015990;28;20184;-80
2022/08/28 02:42:51;;;;;;;1.20;0.83;;;15.90;99.90;;;;;;5002723;28;20237;-80
2022/08/28 02:45:18;;;;;;;0.93;0.87;;;15.90;99.90;;;;;;5012629;28;20215;-80
2022/08/28 02:47:45;;;;;;;0.60;0.60;;;15.80;99.90;;;;;;5006068;28;20227;-80
2022/08/28 02:50:15;;;;;;;2.13;1.13;;;15.80;99.90;;;;;;5003491;28;20239;-80
2022/08/28 02:52:42;;;;;;;1.53;0.70;;;15.90;99.90;;;;;;5015496;28;20278;-80
2022/08/28 02:55:10;;;;;;;5.30;1.00;;;15.90;99.90;;;;;;5004432;28;20238;-80
2022/08/28 02:57:36;;;;;;;4.20;0.60;;;15.90;99.90;;;;;;5000753;28;20222;-80
2022/08/28 03:00:05;;;;;;;2.97;1.10;;;15.80;99.90;;;;;;5015205;28;20595;-80
2022/08/28 03:02:31;;;;;;;0.90;0.83;;;15.80;99.90;;;;;;5022155;28;20470;-79
2022/08/28 03:04:59;;;;;;;1.70;0.93;;;15.80;99.90;;;;;;5009666;28;20225;-80
2022/08/28 03:07:26;;;;;;;3.67;0.60;;;15.80;99.90;;;;;;5014106;28;20246;-80
2022/08/28 03:09:52;;;;;;;1.07;0.70;;;15.80;99.90;;;;;;5015395;28;20245;-80
2022/08/28 03:12:22;;;;;;;2.43;1.23;;;15.80;99.90;;;;;;5009930;28;20229;-80
2022/08/28 03:14:49;;;;;;;3.43;0.73;;;15.70;99.90;;;;;;5011314;28;20220;-80
2022/08/28 03:17:15;;;;;;;2.50;1.30;;;15.70;99.90;;;;;;5001438;28;20261;-80
2022/08/28 03:19:41;;;;;;;0.90;0.80;;;15.70;99.90;;;;;;5014878;28;20278;-80
2022/08/28 03:22:07;;;;;;;0.87;0.73;;;15.70;99.90;;;;;;5015106;28;20249;-80
2022/08/28 03:24:32;;;;;;;5.80;1.80;;;15.70;99.90;;;;;;5014325;28;20227;-80
2022/08/28 03:27:00;;;;;;;3.90;1.13;;;15.80;99.90;;;;;;5013317;28;20215;-80
2022/08/28 03:29:27;;;;;;;2.10;0.60;;;15.90;99.90;;;;;;5014517;28;20310;-80
2022/08/28 03:31:52;;;;;;;2.83;1.07;;;15.90;99.90;;;;;;5014394;28;20214;-80
2022/08/28 03:34:18;;;;;;;1.00;0.60;;;16.00;99.90;;;;;;5014821;28;20183;-81
2022/08/28 03:36:44;;;;;;;0.93;0.53;;;16.10;99.90;;;;;;5005598;28;20677;-79
2022/08/28 03:39:09;;;;;;;4.37;0.97;;;16.10;99.90;;;;;;5004455;28;20688;-82
2022/08/28 03:41:35;;;;;;;3.10;1.13;;;16.20;99.90;;;;;;5014310;28;20242;-79
2022/08/28 03:44:02;;;;;;;3.23;1.00;;;16.20;99.90;;;;;;5012651;28;20230;-80
2022/08/28 03:46:31;;;;;;;6.37;1.03;;;16.20;99.90;;;;;;5003654;28;20322;-79
2022/08/28 03:48:59;;;;;;;1.30;1.07;;;16.20;99.90;;;;;;5014525;28;20239;-79
2022/08/28 03:51:30;;;;;;;2.07;0.80;;;16.10;99.90;;;;;;5012337;28;20229;-79
2022/08/28 03:53:57;;;;;;;1.97;0.70;;;16.10;99.90;;;;;;5011582;28;20305;-80
2022/08/28 03:56:25;;;;;;;3.67;1.30;;;16.20;99.90;;;;;;5002808;28;20215;-80
2022/08/28 03:58:59;;;;;;;2.03;0.90;;;16.20;99.90;;;;;;5005460;28;20251;-80
2022/08/28 04:01:25;;;;;;;5.00;0.87;;;16.10;99.90;;;;;;5002442;28;20670;-82
2022/08/28 04:03:51;;;;;;;5.17;1.10;;;16.00;99.90;;;;;;5010246;28;20227;-80
2022/08/28 04:06:18;;;;;;;1.90;0.90;;;16.00;99.90;;;;;;5001643;28;20231;-80
2022/08/28 04:08:44;;;;;;;2.37;1.07;;;16.00;99.90;;;;;;5013732;28;20235;-80
2022/08/28 04:11:10;;;;;;;0.93;0.80;;;16.10;99.90;;;;;;5012211;28;20230;-80
2022/08/28 04:13:36;;;;;;;2.97;1.00;;;16.20;99.90;;;;;;5013731;28;20195;-81
2022/08/28 04:16:09;;;;;;;0.77;0.77;;;16.20;99.90;;;;;;4996799;28;20187;-82
2022/08/28 04:18:39;;;;;;;4.00;0.70;;;16.30;99.90;;;;;;5014263;28;20223;-81
2022/08/28 04:21:15;;;;;;;1.13;0.60;;;16.30;99.90;;;;;;5010368;28;20227;-81
2022/08/28 04:23:42;;;;;;;0.93;0.63;;;16.30;99.90;;;;;;5013465;28;20315;-81
2022/08/28 04:26:13;;;;;;;1.17;0.90;;;16.30;99.90;;;;;;5013494;28;20273;-80
2022/08/28 04:28:39;;;;;;;3.77;1.00;;;16.30;99.90;;;;;;5012224;28;20665;-81
2022/08/28 04:31:07;;;;;;;1.80;0.90;;;16.30;99.90;;;;;;5014212;28;20668;-81
2022/08/28 04:33:34;;;;;;;2.50;1.13;;;16.30;99.90;;;;;;5012458;28;20223;-79
2022/08/28 04:36:05;;;;;;;3.90;0.80;;;16.30;99.90;;;;;;5011872;28;20587;-80
2022/08/28 04:38:31;;;;;;;10.00;1.20;;;16.40;99.90;;;;;;5011699;28;20227;-79
2022/08/28 04:40:57;;;;;;;4.17;0.97;;;16.50;99.90;;;;;;5012164;28;20630;-80
2022/08/28 04:43:23;;;;;;;1.07;0.97;;;16.60;99.90;;;;;;5008437;28;20531;-79
2022/08/28 04:45:49;;;;;;;3.50;1.40;;;16.70;99.90;;;;;;4976622;28;20215;-80
2022/08/28 04:48:14;;;;;;;1.63;0.70;;;16.60;99.90;;;;;;4989803;28;20294;-79
2022/08/28 04:50:42;;;;;;;0.70;0.57;;;16.70;99.90;;;;;;4978470;28;20693;-80
2022/08/28 04:53:08;;;;;;;1.43;0.70;;;16.60;99.90;;;;;;4994134;28;20220;-79
2022/08/28 04:55:33;;;;;;;1.97;0.77;;;16.60;99.90;;;;;;4994015;28;20203;-80
2022/08/28 04:57:59;;;;;;;3.20;0.80;;;16.50;99.90;;;;;;5012084;28;20551;-80
2022/08/28 05:00:25;;;;;;;1.30;0.73;;;16.40;99.90;;;;;;5011309;28;20258;-79
2022/08/28 05:02:51;;;;;;;2.07;1.17;;;16.30;99.90;;;;;;5011652;28;20695;-80
2022/08/28 05:05:17;;;;;;;2.23;0.90;;;16.30;99.90;;;;;;5011192;28;20231;-80
2022/08/28 05:07:43;;;;;;;1.67;0.60;;;16.30;99.90;;;;;;5006633;28;20239;-79
2022/08/28 05:10:09;;;;;;;2.83;1.20;;;16.30;99.90;;;;;;4991565;28;20286;-80
2022/08/28 05:12:35;;;;;;;2.77;1.07;;;16.40;99.90;;;;;;5016802;28;20697;-79
2022/08/28 05:15:01;;;;;;;1.90;1.10;;;16.40;99.90;;;;;;5014740;28;20250;-79
2022/08/28 05:17:27;;;;;;;2.23;0.60;;;16.40;99.90;;;;;;5011198;28;20665;-79
2022/08/28 05:19:53;;;;;;;4.03;0.70;;;16.50;99.90;;;;;;5013492;28;20215;-79
2022/08/28 05:22:19;;;;;;;1.33;0.73;;;16.50;99.90;;;;;;5011422;28;20197;-81
2022/08/28 05:24:44;;;;;;;1.13;0.60;;;16.60;99.90;;;;;;5012510;28;20745;-79
2022/08/28 05:27:10;;;;;;;0.50;0.50;;;16.60;99.90;;;;;;5012043;28;20322;-80
2022/08/28 05:29:36;;;;;;;0.60;0.40;;;16.70;99.90;;;;;;5010948;28;20219;-80
2022/08/28 05:32:03;;;;;;;0.93;0.73;;;16.80;99.90;;;;;;5011098;28;20219;-80
2022/08/28 05:34:29;;;;;;;1.70;0.87;;;16.80;99.90;;;;;;5011704;28;20267;-79
2022/08/28 05:36:54;;;;;;;7.13;0.93;;;16.80;99.90;;;;;;5012436;28;20286;-79
2022/08/28 05:39:20;;;;;;;1.40;0.77;;;16.80;99.90;;;;;;4993973;28;20245;-78
2022/08/28 05:41:46;;;;;;;2.90;0.67;;;16.70;99.90;;;;;;5010367;28;20268;-79
2022/08/28 05:44:15;;;;;;;0.93;0.70;;;16.70;99.90;;;;;;5002392;28;20219;-80
2022/08/28 05:46:45;;;;;;;0.77;0.60;;;16.70;99.90;;;;;;5002143;28;20180;-80
2022/08/28 05:49:12;;;;;;;1.10;0.90;;;16.80;99.90;;;;;;5012390;28;20206;-80
2022/08/28 05:51:40;;;;;;;1.43;1.23;;;16.80;99.90;;;;;;5011874;28;20565;-79
2022/08/28 05:54:05;;;;;;;1.33;0.53;;;16.80;99.90;;;;;;5010614;28;20219;-79
2022/08/28 05:56:34;;;;;;;1.13;0.93;;;16.70;99.90;;;;;;5011484;28;20250;-79
2022/08/28 05:59:02;;;;;;;1.40;1.10;;;16.70;99.90;;;;;;5011799;28;20227;-79
2022/08/28 06:01:29;;;;;;;1.53;0.43;;;16.80;99.90;;;;;;5009458;28;20191;-81
2022/08/28 06:04:01;;;;;;;1.73;1.00;;;17.20;99.90;;;;;;5011536;28;20199;-80
2022/08/28 06:06:32;;;;;;;0.90;0.73;;;17.40;99.90;;;;;;5009840;28;20242;-81
2022/08/28 06:09:12;;;;;;;2.30;0.80;;;18.60;99.90;;;;;;5008060;28;20254;-80
2022/08/28 06:11:38;;;;;;;0.97;0.57;;;19.90;99.90;;;;;;5011258;28;20218;-80
2022/08/28 06:14:08;;;;;;;1.17;0.80;;;20.50;99.90;;;;;;5012517;28;20223;-80
2022/08/28 06:16:36;;;;;;;6.50;1.23;;;20.80;99.90;;;;;;5011318;28;20203;-81
2022/08/28 06:19:02;;;;;;;0.73;0.73;;;21.10;99.90;;;;;;5012105;28;20187;-80
2022/08/28 06:21:28;;;;;;;0.60;0.60;;;21.20;99.90;;;;;;5010192;28;20357;-80
2022/08/28 06:23:55;;;;;;;1.47;0.83;;;21.40;99.90;;;;;;5011459;28;20225;-80
2022/08/28 06:26:21;;;;;;;1.53;0.80;;;21.30;99.90;;;;;;5000151;28;20226;-80
2022/08/28 06:28:47;;;;;;;2.17;0.83;;;21.10;99.90;;;;;;4999687;28;20249;-81
2022/08/28 06:31:13;;;;;;;1.47;0.83;;;19.80;99.90;;;;;;5011624;28;20261;-80
2022/08/28 06:33:39;;;;;;;3.07;0.77;;;18.90;99.90;;;;;;5010037;28;20229;-79
2022/08/28 06:36:06;;;;;;;0.93;0.70;;;18.80;99.90;;;;;;5008408;28;20219;-79
2022/08/28 06:38:32;;;;;;;3.23;0.87;;;19.10;99.90;;;;;;5010883;28;20315;-78
2022/08/28 06:40:58;;;;;;;3.47;1.13;;;19.00;99.90;;;;;;5008034;28;20702;-79
2022/08/28 06:43:26;;;;;;;2.63;0.70;;;18.40;99.90;;;;;;4994066;28;20195;-79
2022/08/28 06:45:53;;;;;;;2.60;1.03;;;18.00;99.90;;;;;;5013083;28;20357;-80
2022/08/28 06:48:22;;;;;;;2.27;0.60;;;17.80;99.90;;;;;;5010987;28;20227;-79
2022/08/28 06:50:51;;;;;;;1.83;1.07;;;17.90;99.90;;;;;;5010908;28;20219;-79
2022/08/28 06:53:18;;;;;;;3.37;1.10;;;18.60;99.90;;;;;;5011049;28;20310;-80
2022/08/28 06:55:54;;;;;;;1.00;0.80;;;19.00;99.90;;;;;;5006159;28;20219;-81
2022/08/28 06:58:19;;;;;;;1.43;0.87;;;19.20;99.90;;;;;;4995011;28;20195;-80
2022/08/28 07:00:45;;;;;;;1.20;0.90;;;19.70;99.90;;;;;;4993716;28;20719;-79
2022/08/28 07:03:12;;;;;;;0.60;0.60;;;20.40;99.90;;;;;;4993238;28;20231;-81
2022/08/28 07:05:38;;;;;;;2.43;0.70;;;20.90;99.90;;;;;;5009771;28;20221;-80
2022/08/28 07:08:03;;;;;;;2.30;1.00;;;21.30;99.90;;;;;;5002641;28;20241;-82
2022/08/28 07:10:30;;;;;;;2.60;1.10;;;20.80;99.90;;;;;;4981129;28;20188;-81
2022/08/28 07:12:56;;;;;;;1.67;1.07;;;21.30;99.90;;;;;;4999360;28;20238;-81
2022/08/28 07:15:22;;;;;;;3.42;1.02;;;22.00;99.90;;;;;;5005156;28;20220;-81
2022/08/28 07:17:47;;;;;;;1.00;0.88;;;22.20;99.90;;;;;;4995465;28;20221;-81
2022/08/28 07:20:13;;;;;;;0.85;0.75;;;21.90;99.90;;;;;;4997386;28;20242;-78
2022/08/28 07:22:39;;;;;;;2.05;1.20;;;21.80;99.90;;;;;;4993059;28;20187;-80
2022/08/28 07:25:08;;;;;;;1.13;0.75;;;21.80;99.90;;;;;;5006966;28;20192;-80
2022/08/28 07:27:35;;;;;;;2.35;1.00;;;20.80;99.90;;;;;;4991803;28;20211;-79
2022/08/28 07:30:00;;;;;;;3.67;1.08;;;19.60;99.90;;;;;;4998178;28;20215;-81
2022/08/28 07:32:27;;;;;;;3.33;1.08;;;19.60;99.90;;;;;;4996281;28;20302;-81
2022/08/28 07:34:55;;;;;;;1.08;1.00;;;20.00;99.90;;;;;;4967480;28;20314;-80
2022/08/28 07:37:20;;;;;;;3.72;0.80;;;21.20;99.90;;;;;;4985163;28;20196;-81
2022/08/28 07:39:46;;;;;;;1.27;0.90;;;21.50;99.90;;;;;;4985639;28;20231;-80
2022/08/28 07:44:47;;;;;;;4.57;1.05;;;20.20;99.90;;;;;;4987943;28;20785;-82
2022/08/28 07:44:58;;;;;;;1.63;0.90;;;19.70;99.90;;;;;;4987439;28;20625;-82
2022/08/28 07:47:29;;;;;;;4.33;0.97;;;20.00;99.90;;;;;;4998488;28;20696;-80
2022/08/28 07:49:56;;;;;;;3.53;0.90;;;20.10;99.90;;;;;;5009288;28;20260;-80
2022/08/28 07:52:22;;;;;;;0.60;0.50;;;20.80;99.90;;;;;;4993541;28;20195;-80
2022/08/28 07:54:48;;;;;;;2.03;0.90;;;20.30;99.90;;;;;;4980247;28;20220;-81
2022/08/28 07:57:15;;;;;;;2.63;1.03;;;19.70;99.90;;;;;;4980626;28;20212;-80
2022/08/28 07:59:41;;;;;;;1.83;1.20;;;19.30;99.90;;;;;;4981474;28;20323;-79
2022/08/28 08:02:09;;;;;;;1.77;0.90;;;20.30;99.90;;;;;;4982756;28;20727;-80
2022/08/28 08:04:35;;;;;;;4.60;0.97;;;19.90;99.90;;;;;;4983005;28;20180;-80
2022/08/28 08:07:02;;;;;;;1.10;0.77;;;19.40;99.90;;;;;;4990836;28;20251;-80
2022/08/28 08:09:28;;;;;;;0.80;0.80;;;19.10;99.90;;;;;;4988777;28;20582;-80
2022/08/28 08:11:55;;;;;;;3.97;1.00;;;19.70;99.90;;;;;;4991600;28;20216;-81
2022/08/28 08:14:21;;;;;;;0.70;0.50;;;20.20;99.90;;;;;;4981002;28;20220;-79
2022/08/28 08:16:48;;;;;;;2.23;0.77;;;20.60;99.90;;;;;;4984548;28;20192;-79
2022/08/28 08:19:15;;;;;;;1.13;0.80;;;20.90;99.90;;;;;;4993968;28;20278;-80
2022/08/28 08:21:43;;;;;;;1.80;0.80;;;20.20;99.90;;;;;;5011900;28;20215;-79
2022/08/28 08:24:11;;;;;;;2.83;1.00;;;19.30;99.90;;;;;;5013164;28;20223;-79
2022/08/28 08:26:44;;;;;;;0.63;0.50;;;19.90;99.90;;;;;;5012628;28;20242;-80
2022/08/28 08:29:11;;;;;;;7.10;1.47;;;20.60;99.90;;;;;;4996672;28;20287;-80
2022/08/28 08:31:37;;;;;;;0.70;0.70;;;20.90;99.90;;;;;;5011398;28;20251;-79
2022/08/28 08:34:05;;;;;;;0.65;0.65;;;21.00;99.90;;;;;;5010106;28;20192;-79
2022/08/28 08:36:33;;;;;;;1.97;0.77;;;21.40;99.90;;;;;;5011756;28;20243;-80
2022/08/28 08:38:59;;;;;;;0.82;0.73;;;21.70;99.90;;;;;;5001893;28;20219;-79
2022/08/28 08:41:29;;;;;;;0.88;0.70;;;21.90;99.90;;;;;;5005730;28;20223;-81
2022/08/28 08:43:56;;;;;;;2.10;1.67;;;22.20;99.90;;;;;;5012787;28;20627;-80
2022/08/28 08:46:31;;;;;;;8.43;1.27;;;22.30;99.90;;;;;;5013105;28;20190;-80
2022/08/28 08:49:01;;;;;;;0.82;0.70;;;22.10;99.90;;;;;;5010168;28;20683;-80
2022/08/28 08:51:43;;;;;;;1.98;0.95;;;22.20;99.90;;;;;;5003365;28;20219;-81
2022/08/28 08:54:15;;;;;;;2.17;0.90;;;22.60;99.90;;;;;;5011014;28;20676;-81
2022/08/28 08:56:42;;;;;;;2.47;1.08;;;22.60;99.90;;;;;;5012363;28;20227;-80
2022/08/28 08:59:16;;;;;;;4.05;0.70;;;22.80;99.90;;;;;;5012518;28;20337;-80
2022/08/28 09:02:07;;;;;;;1.65;1.08;;;22.90;99.90;;;;;;5019661;28;20690;-82
2022/08/28 09:04:50;;;;;;;1.50;0.95;;;21.70;99.90;;;;;;5010426;28;20562;-81
2022/08/28 09:07:20;;;;;;;3.10;1.25;;;21.00;99.90;;;;;;5003625;28;20273;-80
2022/08/28 09:09:54;;;;;;;5.75;1.17;;;22.00;99.90;;;;;;5011400;28;20700;-82
2022/08/28 09:12:23;;;;;;;2.15;0.90;;;22.00;99.90;;;;;;4998238;28;20657;-82
2022/08/28 09:15:08;;;;;;;1.92;1.02;;;21.60;99.90;;;;;;5013602;28;20772;-80
2022/08/28 09:17:43;;;;;;;1.52;0.88;;;20.50;99.90;;;;;;5007620;28;20237;-81
2022/08/28 09:20:12;;;;;;;3.50;1.02;;;20.20;99.90;;;;;;5011241;28;20215;-80
2022/08/28 09:22:46;;;;;;;2.83;1.13;;;20.80;99.90;;;;;;5010287;28;20175;-80
2022/08/28 09:25:43;;;;;;;4.10;2.25;;;20.40;99.90;;;;;;5010233;28;20294;-81
2022/08/28 09:28:26;;;;;;;0.85;0.85;;;21.40;99.90;;;;;;4988185;28;20697;-81
2022/08/28 09:31:07;;;;;;;1.40;1.00;;;21.00;99.90;;;;;;4986070;28;20345;-81
2022/08/28 09:33:52;;;;;;;1.30;0.90;;;20.20;99.90;;;;;;4988388;28;20242;-81
2022/08/28 09:36:33;;;;;;;3.00;1.30;;;20.60;99.90;;;;;;5000279;28;20223;-80
2022/08/28 09:39:23;;;;;;;1.75;0.60;;;22.00;99.90;;;;;;5008881;28;20680;-80
2022/08/28 09:45:13;;;;;;;2.78;1.38;;;22.60;99.90;;;;;;5003820;28;20224;-80
2022/08/28 09:47:41;;;;;;;1.67;1.13;;;21.80;99.90;;;;;;4987279;28;20237;-79
2022/08/28 09:50:33;;;;;;;1.10;0.80;;;21.00;99.90;;;;;;4988718;28;20183;-80
2022/08/28 09:53:20;;;;;;;2.13;0.95;;;22.10;99.90;;;;;;5003947;28;20212;-81
2022/08/28 09:56:04;;;;;;;0.85;0.63;;;22.90;99.90;;;;;;5000730;28;20237;-80
2022/08/28 09:58:43;;;;;;;2.25;0.95;;;22.60;99.90;;;;;;5006855;28;20208;-82
2022/08/28 10:01:16;;;;;;;2.75;0.93;;;22.50;99.90;;;;;;5013152;28;20219;-80
2022/08/28 10:03:55;;;;;;;2.80;0.70;;;22.80;99.90;;;;;;5002594;28;20215;-80
2022/08/28 10:06:28;;;;;;;2.10;0.93;;;21.60;99.90;;;;;;5000416;28;20215;-81
2022/08/28 10:09:07;;;;;;;1.35;0.85;;;21.90;99.90;;;;;;5000794;28;20247;-80
2022/08/28 10:11:56;;;;;;;2.58;1.23;;;20.60;99.90;;;;;;5001495;28;20215;-81
2022/08/28 10:14:43;;;;;;;1.27;0.93;;;20.20;99.90;;;;;;5004314;28;20208;-81
2022/08/28 10:17:24;;;;;;;0.80;0.80;;;20.80;99.90;;;;;;5005683;28;20175;-80
2022/08/28 10:19:53;;;;;;;1.20;0.82;;;21.00;99.90;;;;;;5004705;28;20662;-81
2022/08/28 10:22:56;;;;;;;1.35;1.00;;;20.90;99.90;;;;;;4984327;28;20697;-80
2022/08/28 10:25:31;;;;;;;0.93;0.70;;;21.40;99.90;;;;;;4987994;28;20223;-80
2022/08/28 10:28:21;;;;;;;1.13;0.63;;;21.70;99.90;;;;;;4987942;28;20289;-79
2022/08/28 10:31:02;;;;;;;2.10;0.88;;;22.30;99.90;;;;;;4999965;28;20227;-80
2022/08/28 10:33:39;;;;;;;1.15;1.00;;;22.20;99.90;;;;;;5003038;28;20592;-81
2022/08/28 10:36:19;;;;;;;0.82;0.82;;;22.40;99.90;;;;;;5002011;28;20772;-80
2022/08/28 10:39:17;;;;;;;3.33;1.20;;;22.10;99.90;;;;;;5001887;28;20246;-82
2022/08/28 10:41:48;;;;;;;3.90;1.15;;;22.40;99.90;;;;;;5000506;28;21139;-80
2022/08/28 10:44:24;;;;;;;2.10;0.70;;;22.50;99.90;;;;;;5010937;28;20822;-81
2022/08/28 10:46:54;;;;;;;1.15;0.85;;;22.30;99.90;;;;;;5009250;28;20186;-80
2022/08/28 10:49:28;;;;;;;4.38;0.70;;;21.50;99.90;;;;;;4990083;28;20223;-82
2022/08/28 10:52:04;;;;;;;1.40;1.08;;;21.70;99.90;;;;;;4992863;28;20235;-81
2022/08/28 10:54:55;;;;;;;1.58;0.73;;;22.00;99.90;;;;;;5004851;28;20226;-79
2022/08/28 10:57:29;;;;;;;1.77;0.90;;;21.90;99.90;;;;;;4999975;28;20689;-80
2022/08/28 10:59:56;;;;;;;1.77;1.50;;;21.90;99.90;;;;;;4992212;28;20216;-80
2022/08/28 11:02:25;;;;;;;2.00;0.80;;;21.60;99.90;;;;;;4995133;28;20188;-80
2022/08/28 11:04:54;;;;;;;1.30;0.82;;;21.80;99.90;;;;;;5013947;28;20191;-81
2022/08/28 11:07:28;;;;;;;2.05;0.80;;;22.00;99.90;;;;;;5013918;28;20251;-79
2022/08/28 11:09:54;;;;;;;0.88;0.85;;;22.20;99.90;;;;;;4999578;28;20231;-79
2022/08/28 11:12:19;;;;;;;2.28;1.08;;;22.20;99.90;;;;;;4985914;28;20223;-80
2022/08/28 11:14:52;;;;;;;3.50;1.13;;;21.60;99.90;;;;;;4998659;28;20215;-80
2022/08/28 11:17:24;;;;;;;2.63;0.90;;;22.10;99.90;;;;;;5010626;28;20633;-81
2022/08/28 11:20:07;;;;;;;0.93;0.80;;;21.50;99.90;;;;;;5005620;28;20246;-81
2022/08/28 11:22:36;;;;;;;3.22;0.80;;;22.10;99.90;;;;;;5021855;28;20215;-79
2022/08/28 11:25:17;;;;;;;0.88;0.68;;;22.20;99.90;;;;;;5011121;28;20310;-80
2022/08/28 11:28:14;;;;;;;4.03;0.98;;;22.00;99.90;;;;;;5010071;28;20262;-81
2022/08/28 11:30:41;;;;;;;1.33;1.10;;;21.90;99.90;;;;;;5014700;28;20836;-79
2022/08/28 11:33:38;;;;;;;1.65;0.88;;;21.60;99.90;;;;;;5009393;28;20227;-80
2022/08/28 11:36:31;;;;;;;2.67;0.82;;;21.50;99.90;;;;;;5003490;28;20227;-81
2022/08/28 11:39:12;;;;;;;2.75;0.88;;;21.70;99.90;;;;;;4960613;28;20216;-81
2022/08/28 11:42:10;;;;;;;1.27;0.90;;;22.10;99.90;;;;;;4985657;28;20285;-81
2022/08/28 11:44:42;;;;;;;2.17;0.80;;;22.40;99.90;;;;;;4997479;28;20223;-81
2022/08/28 11:47:33;;;;;;;2.22;0.95;;;22.30;99.90;;;;;;4984426;28;20203;-82
2022/08/28 11:50:12;;;;;;;0.68;0.68;;;21.90;99.90;;;;;;5010168;28;20211;-80
2022/08/28 11:53:04;;;;;;;3.20;0.90;;;22.20;99.90;;;;;;5012205;28;20294;-81
2022/08/28 11:55:45;;;;;;;4.22;0.93;;;22.10;99.90;;;;;;5006281;28;20357;-80
2022/08/28 11:58:25;;;;;;;1.65;0.77;;;21.80;99.90;;;;;;4994610;28;20583;-81
2022/08/28 12:01:05;;;;;;;1.10;1.00;;;22.00;99.90;;;;;;4987233;28;20674;-82
2022/08/28 12:03:53;;;;;;;3.30;0.80;;;21.60;99.90;;;;;;4995740;28;20216;-81
2022/08/28 12:06:46;;;;;;;1.10;0.60;;;21.70;99.90;;;;;;5001925;28;20239;-80
2022/08/28 12:09:45;;;;;;;0.70;0.60;;;21.90;99.90;;;;;;5011573;28;20297;-80
2022/08/28 12:12:32;;;;;;;0.82;0.63;;;22.00;99.90;;;;;;5007927;28;20219;-81
2022/08/28 12:15:06;;;;;;;3.22;1.13;;;21.50;99.90;;;;;;5012197;28;20246;-81
2022/08/28 12:17:42;;;;;;;2.10;0.90;;;21.20;99.90;;;;;;5005805;28;20187;-80
2022/08/28 12:20:23;;;;;;;2.22;1.05;;;21.00;99.90;;;;;;4988575;28;20180;-81
2022/08/28 12:22:53;;;;;;;3.30;0.93;;;20.90;99.90;;;;;;5012707;28;20770;-80
2022/08/28 12:25:40;;;;;;;1.03;0.90;;;21.00;99.90;;;;;;5015637;28;20280;-80
2022/08/28 12:28:22;;;;;;;1.30;0.80;;;21.10;99.90;;;;;;5006277;28;20223;-80
2022/08/28 12:31:03;;;;;;;2.20;0.60;;;21.20;99.90;;;;;;5006222;28;20221;-81
2022/08/28 12:33:38;;;;;;;1.37;1.20;;;21.60;99.90;;;;;;5014070;28;20214;-81
2022/08/28 12:36:10;;;;;;;5.43;1.30;;;21.30;99.90;;;;;;5010118;28;20748;-79
2022/08/28 12:38:36;;;;;;;2.00;0.73;;;21.60;99.90;;;;;;5011605;28;20656;-79
2022/08/28 12:41:02;;;;;;;0.93;0.70;;;21.50;99.90;;;;;;5005570;28;20699;-80
2022/08/28 12:43:37;;;;;;;3.43;1.10;;;21.50;99.90;;;;;;4997493;28;20203;-79
2022/08/28 12:46:07;;;;;;;0.93;0.80;;;21.70;99.90;;;;;;5008278;28;20238;-81
2022/08/28 12:48:46;;;;;;;1.77;0.90;;;21.40;99.90;;;;;;4999661;28;20256;-79
2022/08/28 12:51:20;;;;;;;1.00;0.90;;;20.70;99.90;;;;;;4998412;28;20723;-81
2022/08/28 12:53:49;;;;;;;2.07;1.17;;;21.20;99.90;;;;;;5004047;28;20220;-79
2022/08/28 12:56:18;;;;;;;4.10;1.47;;;21.40;99.90;;;;;;5006540;28;20216;-80
2022/08/28 12:58:45;;;;;;;1.27;0.73;;;21.60;99.90;;;;;;5009664;28;20237;-83
2022/08/28 13:01:28;;;;;;;2.70;0.70;;;21.40;99.90;;;;;;5003521;28;20589;-81
2022/08/28 13:03:56;;;;;;;1.37;0.80;;;21.50;99.90;;;;;;4992145;28;20246;-81
2022/08/28 13:06:29;;;;;;;6.40;1.37;;;21.60;99.90;;;;;;4985081;28;20227;-81
2022/08/28 13:09:01;;;;;;;1.30;0.70;;;21.30;99.90;;;;;;4985167;28;20235;-80
2022/08/28 13:11:32;;;;;;;0.90;0.60;;;21.00;99.90;;;;;;4983055;28;20276;-80
2022/08/28 13:13:58;;;;;;;1.57;1.07;;;21.00;99.90;;;;;;4979214;28;20386;-79
2022/08/28 13:16:40;;;;;;;1.90;1.00;;;21.00;99.90;;;;;;4986598;28;20688;-82